sensor_id;sensor_type;location;lat;lon;timestamp;P1;durP1;ratioP1;P2;durP2;ratioP2
20844;SDS011;10583;49.084;8.646;2024-02-26T00:01:34;1.53;;;1.53;;
20844;SDS011;10583;49.084;8.646;2024-02-26T00:04:03;1.40;;;1.40;;
20844;SDS011;10583;49.084;8.646;2024-02-26T00:06:32;1.50;;;1.50;;
20844;SDS011;10583;49.084;8.646;2024-02-26T00:09:00;1.83;;;1.83;;
20844;SDS011;10583;49.084;8.646;2024-02-26T00:11:31;1.53;;;1.53;;
20844;SDS011;10583;49.084;8.646;2024-02-26T00:14:04;1.97;;;1.97;;
20844;SDS011;10583;49.084;8.646;2024-02-26T00:16:32;1.40;;;1.40;;
20844;SDS011;10583;49.084;8.646;2024-02-26T00:19:00;1.70;;;1.70;;
20844;SDS011;10583;49.084;8.646;2024-02-26T00:21:29;1.90;;;1.90;;
20844;SDS011;10583;49.084;8.646;2024-02-26T00:23:58;2.17;;;2.17;;
20844;SDS011;10583;49.084;8.646;2024-02-26T00:26:25;1.90;;;1.90;;
20844;SDS011;10583;49.084;8.646;2024-02-26T00:29:00;2.10;;;2.10;;
20844;SDS011;10583;49.084;8.646;2024-02-26T00:31:33;2.37;;;2.37;;
20844;SDS011;10583;49.084;8.646;2024-02-26T00:34:01;2.27;;;2.27;;
20844;SDS011;10583;49.084;8.646;2024-02-26T00:36:37;2.20;;;2.20;;
20844;SDS011;10583;49.084;8.646;2024-02-26T00:39:08;2.00;;;2.00;;
20844;SDS011;10583;49.084;8.646;2024-02-26T00:41:38;2.23;;;2.23;;
20844;SDS011;10583;49.084;8.646;2024-02-26T00:44:09;2.40;;;2.40;;
20844;SDS011;10583;49.084;8.646;2024-02-26T00:46:46;2.00;;;2.00;;
20844;SDS011;10583;49.084;8.646;2024-02-26T00:49:17;2.30;;;2.30;;
20844;SDS011;10583;49.084;8.646;2024-02-26T00:51:45;2.67;;;2.67;;
20844;SDS011;10583;49.084;8.646;2024-02-26T00:54:14;2.43;;;2.43;;
20844;SDS011;10583;49.084;8.646;2024-02-26T00:56:44;2.10;;;2.10;;
20844;SDS011;10583;49.084;8.646;2024-02-26T00:59:16;2.10;;;2.10;;
20844;SDS011;10583;49.084;8.646;2024-02-26T01:01:45;2.53;;;2.53;;
20844;SDS011;10583;49.084;8.646;2024-02-26T01:04:12;2.07;;;2.07;;
20844;SDS011;10583;49.084;8.646;2024-02-26T01:06:42;2.47;;;2.47;;
20844;SDS011;10583;49.084;8.646;2024-02-26T01:09:10;2.50;;;2.50;;
20844;SDS011;10583;49.084;8.646;2024-02-26T01:11:38;2.20;;;2.20;;
20844;SDS011;10583;49.084;8.646;2024-02-26T01:14:07;2.40;;;2.40;;
20844;SDS011;10583;49.084;8.646;2024-02-26T01:16:36;2.63;;;2.63;;
20844;SDS011;10583;49.084;8.646;2024-02-26T01:19:05;2.17;;;2.17;;
20844;SDS011;10583;49.084;8.646;2024-02-26T01:21:34;2.13;;;2.13;;
20844;SDS011;10583;49.084;8.646;2024-02-26T01:24:01;2.40;;;2.40;;
20844;SDS011;10583;49.084;8.646;2024-02-26T01:26:32;2.20;;;2.20;;
20844;SDS011;10583;49.084;8.646;2024-02-26T01:29:01;2.00;;;2.00;;
20844;SDS011;10583;49.084;8.646;2024-02-26T01:31:32;2.13;;;2.13;;
20844;SDS011;10583;49.084;8.646;2024-02-26T01:34:07;2.50;;;2.50;;
20844;SDS011;10583;49.084;8.646;2024-02-26T01:36:37;3.27;;;3.27;;
20844;SDS011;10583;49.084;8.646;2024-02-26T01:39:05;3.37;;;3.37;;
20844;SDS011;10583;49.084;8.646;2024-02-26T01:41:33;2.63;;;2.63;;
20844;SDS011;10583;49.084;8.646;2024-02-26T01:44:01;2.37;;;2.37;;
20844;SDS011;10583;49.084;8.646;2024-02-26T01:46:43;2.40;;;2.40;;
20844;SDS011;10583;49.084;8.646;2024-02-26T01:49:14;2.57;;;2.57;;
20844;SDS011;10583;49.084;8.646;2024-02-26T01:51:43;3.00;;;3.00;;
20844;SDS011;10583;49.084;8.646;2024-02-26T01:54:13;2.60;;;2.60;;
20844;SDS011;10583;49.084;8.646;2024-02-26T01:56:44;2.13;;;2.13;;
20844;SDS011;10583;49.084;8.646;2024-02-26T01:59:12;2.20;;;2.20;;
20844;SDS011;10583;49.084;8.646;2024-02-26T02:01:44;1.87;;;1.87;;
20844;SDS011;10583;49.084;8.646;2024-02-26T02:04:16;0.50;;;0.50;;
20844;SDS011;10583;49.084;8.646;2024-02-26T02:06:43;0.93;;;0.93;;
20844;SDS011;10583;49.084;8.646;2024-02-26T02:09:15;0.83;;;0.83;;
20844;SDS011;10583;49.084;8.646;2024-02-26T02:11:44;1.07;;;1.07;;
20844;SDS011;10583;49.084;8.646;2024-02-26T02:14:13;1.40;;;1.40;;
20844;SDS011;10583;49.084;8.646;2024-02-26T02:16:41;1.20;;;1.20;;
20844;SDS011;10583;49.084;8.646;2024-02-26T02:19:10;1.43;;;1.43;;
20844;SDS011;10583;49.084;8.646;2024-02-26T02:21:40;1.40;;;1.40;;
20844;SDS011;10583;49.084;8.646;2024-02-26T02:24:07;1.23;;;1.23;;
20844;SDS011;10583;49.084;8.646;2024-02-26T02:26:37;1.30;;;1.30;;
20844;SDS011;10583;49.084;8.646;2024-02-26T02:29:06;1.10;;;1.10;;
20844;SDS011;10583;49.084;8.646;2024-02-26T02:31:36;1.30;;;1.30;;
20844;SDS011;10583;49.084;8.646;2024-02-26T02:34:04;1.40;;;1.40;;
20844;SDS011;10583;49.084;8.646;2024-02-26T02:36:48;1.30;;;1.30;;
20844;SDS011;10583;49.084;8.646;2024-02-26T02:39:18;1.20;;;1.20;;
20844;SDS011;10583;49.084;8.646;2024-02-26T02:41:49;1.20;;;1.20;;
20844;SDS011;10583;49.084;8.646;2024-02-26T02:44:20;0.93;;;0.93;;
20844;SDS011;10583;49.084;8.646;2024-02-26T02:46:49;1.00;;;1.00;;
20844;SDS011;10583;49.084;8.646;2024-02-26T02:49:21;0.70;;;0.70;;
20844;SDS011;10583;49.084;8.646;2024-02-26T02:51:51;0.70;;;0.70;;
20844;SDS011;10583;49.084;8.646;2024-02-26T02:54:24;0.60;;;0.60;;
20844;SDS011;10583;49.084;8.646;2024-02-26T02:56:54;0.70;;;0.70;;
20844;SDS011;10583;49.084;8.646;2024-02-26T02:59:28;0.83;;;0.83;;
20844;SDS011;10583;49.084;8.646;2024-02-26T03:02:05;0.83;;;0.83;;
20844;SDS011;10583;49.084;8.646;2024-02-26T03:04:33;0.90;;;0.90;;
20844;SDS011;10583;49.084;8.646;2024-02-26T03:07:05;0.90;;;0.90;;
20844;SDS011;10583;49.084;8.646;2024-02-26T03:09:33;0.80;;;0.80;;
20844;SDS011;10583;49.084;8.646;2024-02-26T03:12:03;0.73;;;0.73;;
20844;SDS011;10583;49.084;8.646;2024-02-26T03:14:31;0.80;;;0.80;;
20844;SDS011;10583;49.084;8.646;2024-02-26T03:16:59;1.07;;;1.07;;
20844;SDS011;10583;49.084;8.646;2024-02-26T03:19:28;1.10;;;1.10;;
20844;SDS011;10583;49.084;8.646;2024-02-26T03:21:56;0.77;;;0.77;;
20844;SDS011;10583;49.084;8.646;2024-02-26T03:24:27;0.80;;;0.80;;
20844;SDS011;10583;49.084;8.646;2024-02-26T03:26:54;0.80;;;0.80;;
20844;SDS011;10583;49.084;8.646;2024-02-26T03:29:22;0.70;;;0.70;;
20844;SDS011;10583;49.084;8.646;2024-02-26T03:31:51;1.00;;;1.00;;
20844;SDS011;10583;49.084;8.646;2024-02-26T03:34:21;0.80;;;0.80;;
20844;SDS011;10583;49.084;8.646;2024-02-26T03:36:49;0.90;;;0.90;;
20844;SDS011;10583;49.084;8.646;2024-02-26T03:39:18;0.90;;;0.90;;
20844;SDS011;10583;49.084;8.646;2024-02-26T03:41:50;0.80;;;0.80;;
20844;SDS011;10583;49.084;8.646;2024-02-26T03:44:19;1.07;;;1.07;;
20844;SDS011;10583;49.084;8.646;2024-02-26T03:46:47;0.80;;;0.80;;
20844;SDS011;10583;49.084;8.646;2024-02-26T03:49:18;0.90;;;0.90;;
20844;SDS011;10583;49.084;8.646;2024-02-26T03:51:47;1.00;;;1.00;;
20844;SDS011;10583;49.084;8.646;2024-02-26T03:54:16;1.00;;;1.00;;
20844;SDS011;10583;49.084;8.646;2024-02-26T03:56:44;1.13;;;1.13;;
20844;SDS011;10583;49.084;8.646;2024-02-26T03:59:18;1.20;;;1.20;;
20844;SDS011;10583;49.084;8.646;2024-02-26T04:01:49;2.13;;;2.13;;
20844;SDS011;10583;49.084;8.646;2024-02-26T04:04:16;1.20;;;1.20;;
20844;SDS011;10583;49.084;8.646;2024-02-26T04:06:44;1.23;;;1.23;;
20844;SDS011;10583;49.084;8.646;2024-02-26T04:09:13;1.10;;;1.10;;
20844;SDS011;10583;49.084;8.646;2024-02-26T04:11:41;1.00;;;1.00;;
20844;SDS011;10583;49.084;8.646;2024-02-26T04:14:11;1.07;;;1.07;;
20844;SDS011;10583;49.084;8.646;2024-02-26T04:16:45;1.30;;;1.30;;
20844;SDS011;10583;49.084;8.646;2024-02-26T04:19:19;1.30;;;1.30;;
20844;SDS011;10583;49.084;8.646;2024-02-26T04:21:48;1.20;;;1.20;;
20844;SDS011;10583;49.084;8.646;2024-02-26T04:24:20;1.20;;;1.20;;
20844;SDS011;10583;49.084;8.646;2024-02-26T04:26:50;1.03;;;1.03;;
20844;SDS011;10583;49.084;8.646;2024-02-26T04:29:20;3.30;;;3.30;;
20844;SDS011;10583;49.084;8.646;2024-02-26T04:31:48;2.30;;;2.30;;
20844;SDS011;10583;49.084;8.646;2024-02-26T04:34:19;1.20;;;1.20;;
20844;SDS011;10583;49.084;8.646;2024-02-26T04:36:57;1.10;;;1.10;;
20844;SDS011;10583;49.084;8.646;2024-02-26T04:39:26;0.90;;;0.90;;
20844;SDS011;10583;49.084;8.646;2024-02-26T04:41:56;1.20;;;1.20;;
20844;SDS011;10583;49.084;8.646;2024-02-26T04:44:31;1.00;;;1.00;;
20844;SDS011;10583;49.084;8.646;2024-02-26T04:47:13;0.90;;;0.90;;
20844;SDS011;10583;49.084;8.646;2024-02-26T04:49:42;1.30;;;1.30;;
20844;SDS011;10583;49.084;8.646;2024-02-26T04:52:12;1.07;;;1.07;;
20844;SDS011;10583;49.084;8.646;2024-02-26T04:54:45;1.27;;;1.27;;
20844;SDS011;10583;49.084;8.646;2024-02-26T04:57:13;1.27;;;1.27;;
20844;SDS011;10583;49.084;8.646;2024-02-26T04:59:47;1.20;;;1.20;;
20844;SDS011;10583;49.084;8.646;2024-02-26T05:02:17;1.20;;;1.20;;
20844;SDS011;10583;49.084;8.646;2024-02-26T05:04:47;1.23;;;1.23;;
20844;SDS011;10583;49.084;8.646;2024-02-26T05:07:17;1.50;;;1.50;;
20844;SDS011;10583;49.084;8.646;2024-02-26T05:09:46;1.57;;;1.57;;
20844;SDS011;10583;49.084;8.646;2024-02-26T05:12:16;1.37;;;1.37;;
20844;SDS011;10583;49.084;8.646;2024-02-26T05:14:44;1.60;;;1.60;;
20844;SDS011;10583;49.084;8.646;2024-02-26T05:17:14;1.43;;;1.43;;
20844;SDS011;10583;49.084;8.646;2024-02-26T05:19:43;1.47;;;1.47;;
20844;SDS011;10583;49.084;8.646;2024-02-26T05:22:11;1.70;;;1.70;;
20844;SDS011;10583;49.084;8.646;2024-02-26T05:24:39;1.60;;;1.60;;
20844;SDS011;10583;49.084;8.646;2024-02-26T05:27:07;1.67;;;1.67;;
20844;SDS011;10583;49.084;8.646;2024-02-26T05:29:35;1.50;;;1.50;;
20844;SDS011;10583;49.084;8.646;2024-02-26T05:32:07;1.47;;;1.47;;
20844;SDS011;10583;49.084;8.646;2024-02-26T05:34:37;1.93;;;1.93;;
20844;SDS011;10583;49.084;8.646;2024-02-26T05:37:07;1.90;;;1.90;;
20844;SDS011;10583;49.084;8.646;2024-02-26T05:39:35;2.10;;;2.10;;
20844;SDS011;10583;49.084;8.646;2024-02-26T05:42:05;1.93;;;1.93;;
20844;SDS011;10583;49.084;8.646;2024-02-26T05:44:34;1.93;;;1.93;;
20844;SDS011;10583;49.084;8.646;2024-02-26T05:47:04;1.90;;;1.90;;
20844;SDS011;10583;49.084;8.646;2024-02-26T05:49:36;2.10;;;2.10;;
20844;SDS011;10583;49.084;8.646;2024-02-26T05:52:04;1.60;;;1.60;;
20844;SDS011;10583;49.084;8.646;2024-02-26T05:54:36;1.70;;;1.70;;
20844;SDS011;10583;49.084;8.646;2024-02-26T05:57:04;1.73;;;1.73;;
20844;SDS011;10583;49.084;8.646;2024-02-26T05:59:33;2.60;;;2.60;;
20844;SDS011;10583;49.084;8.646;2024-02-26T06:02:03;2.03;;;2.03;;
20844;SDS011;10583;49.084;8.646;2024-02-26T06:04:34;2.60;;;2.60;;
20844;SDS011;10583;49.084;8.646;2024-02-26T06:07:05;2.30;;;2.30;;
20844;SDS011;10583;49.084;8.646;2024-02-26T06:09:36;2.33;;;2.33;;
20844;SDS011;10583;49.084;8.646;2024-02-26T06:12:05;2.20;;;2.20;;
20844;SDS011;10583;49.084;8.646;2024-02-26T06:14:33;2.07;;;2.07;;
20844;SDS011;10583;49.084;8.646;2024-02-26T06:17:04;1.63;;;1.63;;
20844;SDS011;10583;49.084;8.646;2024-02-26T06:19:33;1.60;;;1.60;;
20844;SDS011;10583;49.084;8.646;2024-02-26T06:22:02;1.70;;;1.70;;
20844;SDS011;10583;49.084;8.646;2024-02-26T06:24:32;2.00;;;2.00;;
20844;SDS011;10583;49.084;8.646;2024-02-26T06:26:59;1.70;;;1.70;;
20844;SDS011;10583;49.084;8.646;2024-02-26T06:29:27;1.67;;;1.67;;
20844;SDS011;10583;49.084;8.646;2024-02-26T06:31:55;1.87;;;1.87;;
20844;SDS011;10583;49.084;8.646;2024-02-26T06:34:23;1.70;;;1.70;;
20844;SDS011;10583;49.084;8.646;2024-02-26T06:36:51;1.90;;;1.90;;
20844;SDS011;10583;49.084;8.646;2024-02-26T06:39:21;2.13;;;2.13;;
20844;SDS011;10583;49.084;8.646;2024-02-26T06:41:55;1.90;;;1.90;;
20844;SDS011;10583;49.084;8.646;2024-02-26T06:44:27;1.83;;;1.83;;
20844;SDS011;10583;49.084;8.646;2024-02-26T06:46:57;1.90;;;1.90;;
20844;SDS011;10583;49.084;8.646;2024-02-26T06:49:26;1.50;;;1.50;;
20844;SDS011;10583;49.084;8.646;2024-02-26T06:51:54;2.00;;;2.00;;
20844;SDS011;10583;49.084;8.646;2024-02-26T06:54:26;1.70;;;1.70;;
20844;SDS011;10583;49.084;8.646;2024-02-26T06:57:00;1.70;;;1.70;;
20844;SDS011;10583;49.084;8.646;2024-02-26T06:59:28;1.90;;;1.90;;
20844;SDS011;10583;49.084;8.646;2024-02-26T07:01:58;1.67;;;1.67;;
20844;SDS011;10583;49.084;8.646;2024-02-26T07:04:26;1.60;;;1.60;;
20844;SDS011;10583;49.084;8.646;2024-02-26T07:06:56;1.83;;;1.83;;
20844;SDS011;10583;49.084;8.646;2024-02-26T07:09:24;2.03;;;2.03;;
20844;SDS011;10583;49.084;8.646;2024-02-26T07:11:53;2.00;;;2.00;;
20844;SDS011;10583;49.084;8.646;2024-02-26T07:14:23;1.90;;;1.90;;
20844;SDS011;10583;49.084;8.646;2024-02-26T07:16:53;2.00;;;2.00;;
20844;SDS011;10583;49.084;8.646;2024-02-26T07:19:26;1.93;;;1.93;;
20844;SDS011;10583;49.084;8.646;2024-02-26T07:21:54;1.93;;;1.93;;
20844;SDS011;10583;49.084;8.646;2024-02-26T07:24:26;1.67;;;1.67;;
20844;SDS011;10583;49.084;8.646;2024-02-26T07:26:58;2.00;;;2.00;;
20844;SDS011;10583;49.084;8.646;2024-02-26T07:29:26;1.80;;;1.80;;
20844;SDS011;10583;49.084;8.646;2024-02-26T07:31:54;2.00;;;2.00;;
20844;SDS011;10583;49.084;8.646;2024-02-26T07:34:22;1.80;;;1.80;;
20844;SDS011;10583;49.084;8.646;2024-02-26T07:36:54;2.20;;;2.20;;
20844;SDS011;10583;49.084;8.646;2024-02-26T07:39:22;2.00;;;2.00;;
20844;SDS011;10583;49.084;8.646;2024-02-26T07:41:51;2.13;;;2.13;;
20844;SDS011;10583;49.084;8.646;2024-02-26T07:44:20;2.10;;;2.10;;
20844;SDS011;10583;49.084;8.646;2024-02-26T07:46:48;2.03;;;2.03;;
20844;SDS011;10583;49.084;8.646;2024-02-26T07:49:21;2.20;;;2.20;;
20844;SDS011;10583;49.084;8.646;2024-02-26T07:51:50;2.03;;;2.03;;
20844;SDS011;10583;49.084;8.646;2024-02-26T07:54:18;2.10;;;2.10;;
20844;SDS011;10583;49.084;8.646;2024-02-26T07:56:46;2.60;;;2.60;;
20844;SDS011;10583;49.084;8.646;2024-02-26T07:59:14;2.40;;;2.40;;
20844;SDS011;10583;49.084;8.646;2024-02-26T08:01:44;2.40;;;2.40;;
20844;SDS011;10583;49.084;8.646;2024-02-26T08:04:18;1.90;;;1.90;;
20844;SDS011;10583;49.084;8.646;2024-02-26T08:06:46;2.00;;;2.00;;
20844;SDS011;10583;49.084;8.646;2024-02-26T08:09:13;2.40;;;2.40;;
20844;SDS011;10583;49.084;8.646;2024-02-26T08:11:40;2.13;;;2.13;;
20844;SDS011;10583;49.084;8.646;2024-02-26T08:14:07;2.20;;;2.20;;
20844;SDS011;10583;49.084;8.646;2024-02-26T08:16:34;1.90;;;1.90;;
20844;SDS011;10583;49.084;8.646;2024-02-26T08:19:02;1.97;;;1.97;;
20844;SDS011;10583;49.084;8.646;2024-02-26T08:21:29;2.17;;;2.17;;
20844;SDS011;10583;49.084;8.646;2024-02-26T08:23:55;2.33;;;2.33;;
20844;SDS011;10583;49.084;8.646;2024-02-26T08:26:22;1.87;;;1.87;;
20844;SDS011;10583;49.084;8.646;2024-02-26T08:28:49;2.20;;;2.20;;
20844;SDS011;10583;49.084;8.646;2024-02-26T08:31:16;1.83;;;1.83;;
20844;SDS011;10583;49.084;8.646;2024-02-26T08:33:43;1.70;;;1.70;;
20844;SDS011;10583;49.084;8.646;2024-02-26T08:36:11;1.90;;;1.90;;
20844;SDS011;10583;49.084;8.646;2024-02-26T08:38:38;2.00;;;2.00;;
20844;SDS011;10583;49.084;8.646;2024-02-26T08:41:04;2.00;;;2.00;;
20844;SDS011;10583;49.084;8.646;2024-02-26T08:43:31;1.80;;;1.80;;
20844;SDS011;10583;49.084;8.646;2024-02-26T08:45:58;1.70;;;1.70;;
20844;SDS011;10583;49.084;8.646;2024-02-26T08:48:24;1.70;;;1.70;;
20844;SDS011;10583;49.084;8.646;2024-02-26T08:50:51;2.20;;;2.20;;
20844;SDS011;10583;49.084;8.646;2024-02-26T08:53:19;2.07;;;2.07;;
20844;SDS011;10583;49.084;8.646;2024-02-26T08:55:46;1.83;;;1.83;;
20844;SDS011;10583;49.084;8.646;2024-02-26T08:58:13;1.97;;;1.97;;
20844;SDS011;10583;49.084;8.646;2024-02-26T09:00:42;1.73;;;1.73;;
20844;SDS011;10583;49.084;8.646;2024-02-26T09:03:09;1.83;;;1.83;;
20844;SDS011;10583;49.084;8.646;2024-02-26T09:05:36;1.70;;;1.70;;
20844;SDS011;10583;49.084;8.646;2024-02-26T09:08:02;1.50;;;1.50;;
20844;SDS011;10583;49.084;8.646;2024-02-26T09:10:31;1.80;;;1.80;;
20844;SDS011;10583;49.084;8.646;2024-02-26T09:12:58;1.77;;;1.77;;
20844;SDS011;10583;49.084;8.646;2024-02-26T09:15:24;1.50;;;1.50;;
20844;SDS011;10583;49.084;8.646;2024-02-26T09:17:51;1.70;;;1.70;;
20844;SDS011;10583;49.084;8.646;2024-02-26T09:20:18;1.70;;;1.70;;
20844;SDS011;10583;49.084;8.646;2024-02-26T09:22:46;1.90;;;1.90;;
20844;SDS011;10583;49.084;8.646;2024-02-26T09:25:13;2.03;;;2.03;;
20844;SDS011;10583;49.084;8.646;2024-02-26T09:27:42;1.90;;;1.90;;
20844;SDS011;10583;49.084;8.646;2024-02-26T09:30:09;1.90;;;1.90;;
20844;SDS011;10583;49.084;8.646;2024-02-26T09:32:37;2.50;;;2.50;;
20844;SDS011;10583;49.084;8.646;2024-02-26T09:35:05;2.03;;;2.03;;
20844;SDS011;10583;49.084;8.646;2024-02-26T09:37:32;2.17;;;2.17;;
20844;SDS011;10583;49.084;8.646;2024-02-26T09:40:01;2.53;;;2.53;;
20844;SDS011;10583;49.084;8.646;2024-02-26T09:42:28;2.40;;;2.40;;
20844;SDS011;10583;49.084;8.646;2024-02-26T09:45:00;2.40;;;2.40;;
20844;SDS011;10583;49.084;8.646;2024-02-26T09:47:33;2.33;;;2.33;;
20844;SDS011;10583;49.084;8.646;2024-02-26T09:50:02;2.27;;;2.27;;
20844;SDS011;10583;49.084;8.646;2024-02-26T09:52:32;2.30;;;2.30;;
20844;SDS011;10583;49.084;8.646;2024-02-26T09:55:00;2.40;;;2.40;;
20844;SDS011;10583;49.084;8.646;2024-02-26T09:57:28;2.30;;;2.30;;
20844;SDS011;10583;49.084;8.646;2024-02-26T09:59:55;2.37;;;2.37;;
20844;SDS011;10583;49.084;8.646;2024-02-26T10:02:32;2.20;;;2.20;;
20844;SDS011;10583;49.084;8.646;2024-02-26T10:05:02;2.10;;;2.10;;
20844;SDS011;10583;49.084;8.646;2024-02-26T10:07:30;2.70;;;2.70;;
20844;SDS011;10583;49.084;8.646;2024-02-26T10:09:58;2.20;;;2.20;;
20844;SDS011;10583;49.084;8.646;2024-02-26T10:12:24;2.30;;;2.30;;
20844;SDS011;10583;49.084;8.646;2024-02-26T10:14:53;1.83;;;1.83;;
20844;SDS011;10583;49.084;8.646;2024-02-26T10:17:21;2.40;;;2.40;;
20844;SDS011;10583;49.084;8.646;2024-02-26T10:19:48;2.40;;;2.40;;
20844;SDS011;10583;49.084;8.646;2024-02-26T10:22:16;2.30;;;2.30;;
20844;SDS011;10583;49.084;8.646;2024-02-26T10:24:43;2.40;;;2.40;;
20844;SDS011;10583;49.084;8.646;2024-02-26T10:27:13;2.10;;;2.10;;
20844;SDS011;10583;49.084;8.646;2024-02-26T10:29:41;2.13;;;2.13;;
20844;SDS011;10583;49.084;8.646;2024-02-26T10:32:08;2.20;;;2.20;;
20844;SDS011;10583;49.084;8.646;2024-02-26T10:34:37;2.40;;;2.40;;
20844;SDS011;10583;49.084;8.646;2024-02-26T10:37:06;2.30;;;2.30;;
20844;SDS011;10583;49.084;8.646;2024-02-26T10:39:33;2.00;;;2.00;;
20844;SDS011;10583;49.084;8.646;2024-02-26T10:42:02;1.93;;;1.93;;
20844;SDS011;10583;49.084;8.646;2024-02-26T10:44:34;1.90;;;1.90;;
20844;SDS011;10583;49.084;8.646;2024-02-26T10:47:01;2.30;;;2.30;;
20844;SDS011;10583;49.084;8.646;2024-02-26T10:49:28;2.30;;;2.30;;
20844;SDS011;10583;49.084;8.646;2024-02-26T10:51:56;1.80;;;1.80;;
20844;SDS011;10583;49.084;8.646;2024-02-26T10:54:23;1.90;;;1.90;;
20844;SDS011;10583;49.084;8.646;2024-02-26T10:56:53;1.80;;;1.80;;
20844;SDS011;10583;49.084;8.646;2024-02-26T10:59:22;2.00;;;2.00;;
20844;SDS011;10583;49.084;8.646;2024-02-26T11:01:48;2.00;;;2.00;;
20844;SDS011;10583;49.084;8.646;2024-02-26T11:04:16;2.17;;;2.17;;
20844;SDS011;10583;49.084;8.646;2024-02-26T11:06:44;1.73;;;1.73;;
20844;SDS011;10583;49.084;8.646;2024-02-26T11:09:14;1.87;;;1.87;;
20844;SDS011;10583;49.084;8.646;2024-02-26T11:11:41;1.70;;;1.70;;
20844;SDS011;10583;49.084;8.646;2024-02-26T11:14:09;1.93;;;1.93;;
20844;SDS011;10583;49.084;8.646;2024-02-26T11:16:38;1.60;;;1.60;;
20844;SDS011;10583;49.084;8.646;2024-02-26T11:19:08;1.97;;;1.97;;
20844;SDS011;10583;49.084;8.646;2024-02-26T11:21:38;1.43;;;1.43;;
20844;SDS011;10583;49.084;8.646;2024-02-26T11:24:08;1.30;;;1.30;;
20844;SDS011;10583;49.084;8.646;2024-02-26T11:26:45;1.40;;;1.40;;
20844;SDS011;10583;49.084;8.646;2024-02-26T11:29:23;1.23;;;1.23;;
20844;SDS011;10583;49.084;8.646;2024-02-26T11:31:58;1.40;;;1.40;;
20844;SDS011;10583;49.084;8.646;2024-02-26T11:34:27;1.13;;;1.13;;
20844;SDS011;10583;49.084;8.646;2024-02-26T11:37:08;1.40;;;1.40;;
20844;SDS011;10583;49.084;8.646;2024-02-26T11:39:37;1.30;;;1.30;;
20844;SDS011;10583;49.084;8.646;2024-02-26T11:42:13;1.27;;;1.27;;
20844;SDS011;10583;49.084;8.646;2024-02-26T11:44:43;1.30;;;1.30;;
20844;SDS011;10583;49.084;8.646;2024-02-26T11:47:10;1.40;;;1.40;;
20844;SDS011;10583;49.084;8.646;2024-02-26T11:49:39;1.03;;;1.03;;
20844;SDS011;10583;49.084;8.646;2024-02-26T11:52:07;1.00;;;1.00;;
20844;SDS011;10583;49.084;8.646;2024-02-26T11:54:39;1.30;;;1.30;;
20844;SDS011;10583;49.084;8.646;2024-02-26T11:57:26;1.30;;;1.30;;
20844;SDS011;10583;49.084;8.646;2024-02-26T12:00:10;1.00;;;1.00;;
20844;SDS011;10583;49.084;8.646;2024-02-26T12:02:40;1.20;;;1.20;;
20844;SDS011;10583;49.084;8.646;2024-02-26T12:05:11;1.27;;;1.27;;
20844;SDS011;10583;49.084;8.646;2024-02-26T12:07:42;1.10;;;1.10;;
20844;SDS011;10583;49.084;8.646;2024-02-26T12:10:24;1.10;;;1.10;;
20844;SDS011;10583;49.084;8.646;2024-02-26T12:13:10;0.97;;;0.97;;
20844;SDS011;10583;49.084;8.646;2024-02-26T12:15:39;1.07;;;1.07;;
20844;SDS011;10583;49.084;8.646;2024-02-26T12:18:08;1.00;;;1.00;;
20844;SDS011;10583;49.084;8.646;2024-02-26T12:20:36;1.07;;;1.07;;
20844;SDS011;10583;49.084;8.646;2024-02-26T12:23:03;0.80;;;0.80;;
20844;SDS011;10583;49.084;8.646;2024-02-26T12:25:31;0.80;;;0.80;;
20844;SDS011;10583;49.084;8.646;2024-02-26T12:27:58;0.80;;;0.80;;
20844;SDS011;10583;49.084;8.646;2024-02-26T12:30:27;0.97;;;0.97;;
20844;SDS011;10583;49.084;8.646;2024-02-26T12:32:56;0.60;;;0.60;;
20844;SDS011;10583;49.084;8.646;2024-02-26T12:35:25;0.70;;;0.70;;
20844;SDS011;10583;49.084;8.646;2024-02-26T12:37:52;0.67;;;0.67;;
20844;SDS011;10583;49.084;8.646;2024-02-26T12:40:19;0.53;;;0.53;;
20844;SDS011;10583;49.084;8.646;2024-02-26T12:42:47;0.50;;;0.50;;
20844;SDS011;10583;49.084;8.646;2024-02-26T12:45:14;0.50;;;0.50;;
20844;SDS011;10583;49.084;8.646;2024-02-26T12:47:44;0.50;;;0.50;;
20844;SDS011;10583;49.084;8.646;2024-02-26T12:50:15;0.30;;;0.30;;
20844;SDS011;10583;49.084;8.646;2024-02-26T12:52:44;0.40;;;0.40;;
20844;SDS011;10583;49.084;8.646;2024-02-26T12:55:14;0.60;;;0.60;;
20844;SDS011;10583;49.084;8.646;2024-02-26T12:57:43;0.50;;;0.50;;
20844;SDS011;10583;49.084;8.646;2024-02-26T13:00:12;0.50;;;0.50;;
20844;SDS011;10583;49.084;8.646;2024-02-26T13:02:51;0.40;;;0.40;;
20844;SDS011;10583;49.084;8.646;2024-02-26T13:05:21;0.70;;;0.70;;
20844;SDS011;10583;49.084;8.646;2024-02-26T13:07:53;0.50;;;0.50;;
20844;SDS011;10583;49.084;8.646;2024-02-26T13:10:24;0.50;;;0.50;;
20844;SDS011;10583;49.084;8.646;2024-02-26T13:12:51;0.33;;;0.33;;
20844;SDS011;10583;49.084;8.646;2024-02-26T13:15:19;0.50;;;0.50;;
20844;SDS011;10583;49.084;8.646;2024-02-26T13:17:48;0.60;;;0.60;;
20844;SDS011;10583;49.084;8.646;2024-02-26T13:20:28;0.67;;;0.67;;
20844;SDS011;10583;49.084;8.646;2024-02-26T13:23:01;0.73;;;0.73;;
20844;SDS011;10583;49.084;8.646;2024-02-26T13:25:30;0.40;;;0.40;;
20844;SDS011;10583;49.084;8.646;2024-02-26T13:28:07;0.73;;;0.73;;
20844;SDS011;10583;49.084;8.646;2024-02-26T13:30:35;0.60;;;0.60;;
20844;SDS011;10583;49.084;8.646;2024-02-26T13:33:09;0.60;;;0.60;;
20844;SDS011;10583;49.084;8.646;2024-02-26T13:35:36;0.67;;;0.67;;
20844;SDS011;10583;49.084;8.646;2024-02-26T13:38:04;0.70;;;0.70;;
20844;SDS011;10583;49.084;8.646;2024-02-26T13:40:31;1.30;;;1.30;;
20844;SDS011;10583;49.084;8.646;2024-02-26T13:42:58;0.90;;;0.90;;
20844;SDS011;10583;49.084;8.646;2024-02-26T13:45:25;0.70;;;0.70;;
20844;SDS011;10583;49.084;8.646;2024-02-26T13:47:52;0.90;;;0.90;;
20844;SDS011;10583;49.084;8.646;2024-02-26T13:50:20;0.70;;;0.70;;
20844;SDS011;10583;49.084;8.646;2024-02-26T13:52:48;0.80;;;0.80;;
20844;SDS011;10583;49.084;8.646;2024-02-26T13:55:18;0.80;;;0.80;;
20844;SDS011;10583;49.084;8.646;2024-02-26T13:57:45;0.80;;;0.80;;
20844;SDS011;10583;49.084;8.646;2024-02-26T14:00:13;0.70;;;0.70;;
20844;SDS011;10583;49.084;8.646;2024-02-26T14:02:40;0.80;;;0.80;;
20844;SDS011;10583;49.084;8.646;2024-02-26T14:05:07;0.93;;;0.93;;
20844;SDS011;10583;49.084;8.646;2024-02-26T14:07:35;1.07;;;1.07;;
20844;SDS011;10583;49.084;8.646;2024-02-26T14:10:02;1.10;;;1.10;;
20844;SDS011;10583;49.084;8.646;2024-02-26T14:12:29;0.80;;;0.80;;
20844;SDS011;10583;49.084;8.646;2024-02-26T14:14:56;0.93;;;0.93;;
20844;SDS011;10583;49.084;8.646;2024-02-26T14:17:25;0.60;;;0.60;;
20844;SDS011;10583;49.084;8.646;2024-02-26T14:19:52;0.80;;;0.80;;
20844;SDS011;10583;49.084;8.646;2024-02-26T14:22:20;0.90;;;0.90;;
20844;SDS011;10583;49.084;8.646;2024-02-26T14:24:50;0.77;;;0.77;;
20844;SDS011;10583;49.084;8.646;2024-02-26T14:27:20;0.70;;;0.70;;
20844;SDS011;10583;49.084;8.646;2024-02-26T14:29:47;0.77;;;0.77;;
20844;SDS011;10583;49.084;8.646;2024-02-26T14:32:14;0.70;;;0.70;;
20844;SDS011;10583;49.084;8.646;2024-02-26T14:34:42;0.50;;;0.50;;
20844;SDS011;10583;49.084;8.646;2024-02-26T14:37:08;0.80;;;0.80;;
20844;SDS011;10583;49.084;8.646;2024-02-26T14:39:36;0.80;;;0.80;;
20844;SDS011;10583;49.084;8.646;2024-02-26T14:42:05;0.70;;;0.70;;
20844;SDS011;10583;49.084;8.646;2024-02-26T14:44:32;0.70;;;0.70;;
20844;SDS011;10583;49.084;8.646;2024-02-26T14:46:58;0.90;;;0.90;;
20844;SDS011;10583;49.084;8.646;2024-02-26T14:49:25;0.67;;;0.67;;
20844;SDS011;10583;49.084;8.646;2024-02-26T14:51:52;0.90;;;0.90;;
20844;SDS011;10583;49.084;8.646;2024-02-26T14:54:19;0.70;;;0.70;;
20844;SDS011;10583;49.084;8.646;2024-02-26T14:56:46;0.50;;;0.50;;
20844;SDS011;10583;49.084;8.646;2024-02-26T14:59:14;0.67;;;0.67;;
20844;SDS011;10583;49.084;8.646;2024-02-26T15:01:41;0.50;;;0.50;;